Ririe, Idaho
Current Conditions -  °F | °C
As of 4:53 AM on Thursday 23 Oct 2014 (Local Time) from KRXE Reporting Station
Overcast Overcast  
Wind Chill: 38°   Ceiling: 8000
Heat Index: 38°   Visibility: 10mi
Dew Point: 32°   Wind: 3mph
Humidity: 79%   Direction: 60°ENE
Pressure: 30.14"   Gusts: NA
Location:  43.63°N, 111.77°W
Report Text: KRXE 231053Z AUTO 06003KT 10SM BKN080 OVC095 03/00 A3014 RMK AO2 SLP200 T00330000
Loading
Personal Weather Stations






























Interactive Weather Map
Tropical Storm Tracking
New forecast layout! Learn more

10-Day Weather Forecast

Advertisements
Track Severe Weather on mobile